sensor_id;sensor_type;location;lat;lon;timestamp;P1;durP1;ratioP1;P2;durP2;ratioP2
21810;SDS011;11067;48.788;9.208;2023-04-20T00:00:49;6.73;;;3.80;;
21810;SDS011;11067;48.788;9.208;2023-04-20T00:03:15;15.90;;;7.00;;
21810;SDS011;11067;48.788;9.208;2023-04-20T00:05:45;7.50;;;4.73;;
21810;SDS011;11067;48.788;9.208;2023-04-20T00:08:13;8.60;;;4.60;;
21810;SDS011;11067;48.788;9.208;2023-04-20T00:10:39;7.50;;;4.53;;
21810;SDS011;11067;48.788;9.208;2023-04-20T00:13:05;5.90;;;4.03;;
21810;SDS011;11067;48.788;9.208;2023-04-20T00:15:30;6.77;;;4.37;;
21810;SDS011;11067;48.788;9.208;2023-04-20T00:17:56;5.05;;;3.70;;
21810;SDS011;11067;48.788;9.208;2023-04-20T00:20:21;4.78;;;3.67;;
21810;SDS011;11067;48.788;9.208;2023-04-20T00:22:47;6.70;;;3.88;;
21810;SDS011;11067;48.788;9.208;2023-04-20T00:25:12;7.75;;;4.43;;
21810;SDS011;11067;48.788;9.208;2023-04-20T00:27:38;6.60;;;4.23;;
21810;SDS011;11067;48.788;9.208;2023-04-20T00:30:04;8.47;;;4.50;;
21810;SDS011;11067;48.788;9.208;2023-04-20T00:32:30;8.18;;;4.20;;
21810;SDS011;11067;48.788;9.208;2023-04-20T00:34:55;6.40;;;4.20;;
21810;SDS011;11067;48.788;9.208;2023-04-20T00:37:21;6.90;;;4.40;;
21810;SDS011;11067;48.788;9.208;2023-04-20T00:39:49;6.05;;;4.40;;
21810;SDS011;11067;48.788;9.208;2023-04-20T00:42:15;5.60;;;4.05;;
21810;SDS011;11067;48.788;9.208;2023-04-20T00:44:40;8.53;;;4.20;;
21810;SDS011;11067;48.788;9.208;2023-04-20T00:47:06;6.28;;;4.13;;
21810;SDS011;11067;48.788;9.208;2023-04-20T00:49:31;7.03;;;4.25;;
21810;SDS011;11067;48.788;9.208;2023-04-20T00:51:57;8.88;;;4.75;;
21810;SDS011;11067;48.788;9.208;2023-04-20T00:54:25;7.18;;;4.22;;
21810;SDS011;11067;48.788;9.208;2023-04-20T00:56:52;7.18;;;4.30;;
21810;SDS011;11067;48.788;9.208;2023-04-20T00:59:19;7.90;;;4.35;;
21810;SDS011;11067;48.788;9.208;2023-04-20T01:01:45;7.15;;;4.55;;
21810;SDS011;11067;48.788;9.208;2023-04-20T01:04:11;5.68;;;4.70;;
21810;SDS011;11067;48.788;9.208;2023-04-20T01:06:37;7.00;;;4.43;;
21810;SDS011;11067;48.788;9.208;2023-04-20T01:09:02;8.30;;;4.60;;
21810;SDS011;11067;48.788;9.208;2023-04-20T01:11:28;6.13;;;4.20;;
21810;SDS011;11067;48.788;9.208;2023-04-20T01:13:54;7.07;;;4.45;;
21810;SDS011;11067;48.788;9.208;2023-04-20T01:16:19;7.68;;;4.60;;
21810;SDS011;11067;48.788;9.208;2023-04-20T01:18:46;7.03;;;4.40;;
21810;SDS011;11067;48.788;9.208;2023-04-20T01:21:14;6.95;;;4.70;;
21810;SDS011;11067;48.788;9.208;2023-04-20T01:23:41;9.68;;;4.78;;
21810;SDS011;11067;48.788;9.208;2023-04-20T01:26:10;5.93;;;4.88;;
21810;SDS011;11067;48.788;9.208;2023-04-20T01:28:37;7.50;;;4.70;;
21810;SDS011;11067;48.788;9.208;2023-04-20T01:31:03;8.10;;;5.13;;
21810;SDS011;11067;48.788;9.208;2023-04-20T01:33:30;6.93;;;4.50;;
21810;SDS011;11067;48.788;9.208;2023-04-20T01:35:56;7.35;;;4.55;;
21810;SDS011;11067;48.788;9.208;2023-04-20T01:38:22;7.13;;;4.75;;
21810;SDS011;11067;48.788;9.208;2023-04-20T01:40:48;7.65;;;4.90;;
21810;SDS011;11067;48.788;9.208;2023-04-20T01:43:15;6.70;;;4.47;;
21810;SDS011;11067;48.788;9.208;2023-04-20T01:45:41;7.43;;;4.40;;
21810;SDS011;11067;48.788;9.208;2023-04-20T01:48:06;6.13;;;4.47;;
21810;SDS011;11067;48.788;9.208;2023-04-20T01:50:32;6.57;;;4.30;;
21810;SDS011;11067;48.788;9.208;2023-04-20T01:52:57;7.60;;;4.27;;
21810;SDS011;11067;48.788;9.208;2023-04-20T01:55:23;5.53;;;4.30;;
21810;SDS011;11067;48.788;9.208;2023-04-20T01:57:48;6.63;;;4.63;;
21810;SDS011;11067;48.788;9.208;2023-04-20T02:00:14;7.50;;;4.43;;
21810;SDS011;11067;48.788;9.208;2023-04-20T02:02:40;8.48;;;4.60;;
21810;SDS011;11067;48.788;9.208;2023-04-20T02:05:06;7.95;;;4.82;;
21810;SDS011;11067;48.788;9.208;2023-04-20T02:07:32;8.57;;;4.93;;
21810;SDS011;11067;48.788;9.208;2023-04-20T02:09:57;9.63;;;4.47;;
21810;SDS011;11067;48.788;9.208;2023-04-20T02:12:23;6.77;;;4.40;;
21810;SDS011;11067;48.788;9.208;2023-04-20T02:14:48;7.07;;;4.60;;
21810;SDS011;11067;48.788;9.208;2023-04-20T02:17:14;7.37;;;4.50;;
21810;SDS011;11067;48.788;9.208;2023-04-20T02:19:39;8.10;;;4.30;;
21810;SDS011;11067;48.788;9.208;2023-04-20T02:22:05;8.05;;;4.78;;
21810;SDS011;11067;48.788;9.208;2023-04-20T02:24:31;6.97;;;4.30;;
21810;SDS011;11067;48.788;9.208;2023-04-20T02:26:56;7.75;;;4.40;;
21810;SDS011;11067;48.788;9.208;2023-04-20T02:29:22;7.70;;;4.25;;
21810;SDS011;11067;48.788;9.208;2023-04-20T02:31:48;7.60;;;4.93;;
21810;SDS011;11067;48.788;9.208;2023-04-20T02:34:14;6.80;;;4.72;;
21810;SDS011;11067;48.788;9.208;2023-04-20T02:36:40;6.75;;;4.65;;
21810;SDS011;11067;48.788;9.208;2023-04-20T02:39:05;7.03;;;4.22;;
21810;SDS011;11067;48.788;9.208;2023-04-20T02:41:31;7.50;;;4.53;;
21810;SDS011;11067;48.788;9.208;2023-04-20T02:43:56;7.90;;;4.40;;
21810;SDS011;11067;48.788;9.208;2023-04-20T02:46:22;7.00;;;4.93;;
21810;SDS011;11067;48.788;9.208;2023-04-20T02:48:47;6.47;;;4.30;;
21810;SDS011;11067;48.788;9.208;2023-04-20T02:51:13;7.37;;;5.23;;
21810;SDS011;11067;48.788;9.208;2023-04-20T02:53:38;8.13;;;5.30;;
21810;SDS011;11067;48.788;9.208;2023-04-20T02:56:04;7.32;;;5.40;;
21810;SDS011;11067;48.788;9.208;2023-04-20T02:58:30;7.10;;;5.20;;
21810;SDS011;11067;48.788;9.208;2023-04-20T03:00:59;8.43;;;5.25;;
21810;SDS011;11067;48.788;9.208;2023-04-20T03:03:26;9.50;;;5.53;;
21810;SDS011;11067;48.788;9.208;2023-04-20T03:05:53;7.67;;;5.20;;
21810;SDS011;11067;48.788;9.208;2023-04-20T03:08:19;7.28;;;5.25;;
21810;SDS011;11067;48.788;9.208;2023-04-20T03:10:45;10.68;;;5.53;;
21810;SDS011;11067;48.788;9.208;2023-04-20T03:13:10;7.65;;;5.63;;
21810;SDS011;11067;48.788;9.208;2023-04-20T03:15:36;6.65;;;5.50;;
21810;SDS011;11067;48.788;9.208;2023-04-20T03:18:01;7.28;;;5.25;;
21810;SDS011;11067;48.788;9.208;2023-04-20T03:20:27;9.82;;;5.65;;
21810;SDS011;11067;48.788;9.208;2023-04-20T03:22:53;8.10;;;5.32;;
21810;SDS011;11067;48.788;9.208;2023-04-20T03:25:19;7.68;;;5.68;;
21810;SDS011;11067;48.788;9.208;2023-04-20T03:27:45;7.97;;;5.30;;
21810;SDS011;11067;48.788;9.208;2023-04-20T03:30:11;8.43;;;5.45;;
21810;SDS011;11067;48.788;9.208;2023-04-20T03:32:37;9.20;;;5.47;;
21810;SDS011;11067;48.788;9.208;2023-04-20T03:35:04;8.50;;;5.70;;
21810;SDS011;11067;48.788;9.208;2023-04-20T03:37:30;7.25;;;5.15;;
21810;SDS011;11067;48.788;9.208;2023-04-20T03:39:55;8.10;;;5.20;;
21810;SDS011;11067;48.788;9.208;2023-04-20T03:42:21;9.52;;;5.65;;
21810;SDS011;11067;48.788;9.208;2023-04-20T03:44:47;7.93;;;5.25;;
21810;SDS011;11067;48.788;9.208;2023-04-20T03:47:12;9.30;;;4.90;;
21810;SDS011;11067;48.788;9.208;2023-04-20T03:49:38;7.57;;;5.15;;
21810;SDS011;11067;48.788;9.208;2023-04-20T03:52:04;8.05;;;5.22;;
21810;SDS011;11067;48.788;9.208;2023-04-20T03:54:30;9.18;;;5.40;;
21810;SDS011;11067;48.788;9.208;2023-04-20T03:56:55;9.50;;;5.37;;
21810;SDS011;11067;48.788;9.208;2023-04-20T03:59:22;10.05;;;6.00;;
21810;SDS011;11067;48.788;9.208;2023-04-20T04:01:48;7.97;;;5.10;;
21810;SDS011;11067;48.788;9.208;2023-04-20T04:04:13;7.87;;;5.20;;
21810;SDS011;11067;48.788;9.208;2023-04-20T04:06:39;9.93;;;5.63;;
21810;SDS011;11067;48.788;9.208;2023-04-20T04:09:04;9.10;;;5.57;;
21810;SDS011;11067;48.788;9.208;2023-04-20T04:11:30;9.10;;;6.10;;
21810;SDS011;11067;48.788;9.208;2023-04-20T04:13:58;7.38;;;5.47;;
21810;SDS011;11067;48.788;9.208;2023-04-20T04:16:24;10.25;;;6.00;;
21810;SDS011;11067;48.788;9.208;2023-04-20T04:18:49;9.20;;;5.60;;
21810;SDS011;11067;48.788;9.208;2023-04-20T04:21:15;10.25;;;6.40;;
21810;SDS011;11067;48.788;9.208;2023-04-20T04:23:41;8.53;;;5.40;;
21810;SDS011;11067;48.788;9.208;2023-04-20T04:26:07;9.17;;;5.50;;
21810;SDS011;11067;48.788;9.208;2023-04-20T04:28:33;8.77;;;5.80;;
21810;SDS011;11067;48.788;9.208;2023-04-20T04:30:58;11.13;;;6.40;;
21810;SDS011;11067;48.788;9.208;2023-04-20T04:33:29;10.18;;;6.32;;
21810;SDS011;11067;48.788;9.208;2023-04-20T04:35:57;9.85;;;6.07;;
21810;SDS011;11067;48.788;9.208;2023-04-20T04:38:23;13.48;;;6.65;;
21810;SDS011;11067;48.788;9.208;2023-04-20T04:40:48;11.38;;;6.47;;
21810;SDS011;11067;48.788;9.208;2023-04-20T04:43:16;11.02;;;6.35;;
21810;SDS011;11067;48.788;9.208;2023-04-20T04:45:43;10.00;;;6.18;;
21810;SDS011;11067;48.788;9.208;2023-04-20T04:48:10;9.18;;;6.20;;
21810;SDS011;11067;48.788;9.208;2023-04-20T04:50:38;9.70;;;5.70;;
21810;SDS011;11067;48.788;9.208;2023-04-20T04:53:03;9.60;;;5.85;;
21810;SDS011;11067;48.788;9.208;2023-04-20T04:55:29;7.68;;;5.80;;
21810;SDS011;11067;48.788;9.208;2023-04-20T04:57:55;10.02;;;5.53;;
21810;SDS011;11067;48.788;9.208;2023-04-20T05:00:21;7.90;;;5.65;;
21810;SDS011;11067;48.788;9.208;2023-04-20T05:02:47;10.95;;;5.50;;
21810;SDS011;11067;48.788;9.208;2023-04-20T05:05:13;6.53;;;5.00;;
21810;SDS011;11067;48.788;9.208;2023-04-20T05:07:39;10.13;;;5.00;;
21810;SDS011;11067;48.788;9.208;2023-04-20T05:10:05;6.80;;;4.70;;
21810;SDS011;11067;48.788;9.208;2023-04-20T05:12:31;10.32;;;5.18;;
21810;SDS011;11067;48.788;9.208;2023-04-20T05:14:57;10.25;;;5.40;;
21810;SDS011;11067;48.788;9.208;2023-04-20T05:17:23;9.00;;;5.38;;
21810;SDS011;11067;48.788;9.208;2023-04-20T05:19:49;9.23;;;4.63;;
21810;SDS011;11067;48.788;9.208;2023-04-20T05:22:15;10.10;;;5.15;;
21810;SDS011;11067;48.788;9.208;2023-04-20T05:24:41;9.97;;;4.80;;
21810;SDS011;11067;48.788;9.208;2023-04-20T05:27:07;8.68;;;4.85;;
21810;SDS011;11067;48.788;9.208;2023-04-20T05:29:35;7.53;;;4.60;;
21810;SDS011;11067;48.788;9.208;2023-04-20T05:32:01;6.27;;;4.37;;
21810;SDS011;11067;48.788;9.208;2023-04-20T05:34:27;8.73;;;4.50;;
21810;SDS011;11067;48.788;9.208;2023-04-20T05:36:53;6.60;;;4.55;;
21810;SDS011;11067;48.788;9.208;2023-04-20T05:39:19;6.93;;;4.60;;
21810;SDS011;11067;48.788;9.208;2023-04-20T05:41:45;7.18;;;4.68;;
21810;SDS011;11067;48.788;9.208;2023-04-20T05:44:12;5.45;;;4.22;;
21810;SDS011;11067;48.788;9.208;2023-04-20T05:46:38;9.67;;;4.87;;
21810;SDS011;11067;48.788;9.208;2023-04-20T05:49:03;7.60;;;4.67;;
21810;SDS011;11067;48.788;9.208;2023-04-20T05:51:30;6.38;;;4.70;;
21810;SDS011;11067;48.788;9.208;2023-04-20T05:53:58;10.50;;;5.47;;
21810;SDS011;11067;48.788;9.208;2023-04-20T05:56:25;11.82;;;7.28;;
21810;SDS011;11067;48.788;9.208;2023-04-20T05:58:51;5.85;;;4.57;;
21810;SDS011;11067;48.788;9.208;2023-04-20T06:01:17;6.05;;;4.72;;
21810;SDS011;11067;48.788;9.208;2023-04-20T06:03:43;5.68;;;4.80;;
21810;SDS011;11067;48.788;9.208;2023-04-20T06:06:08;7.67;;;4.87;;
21810;SDS011;11067;48.788;9.208;2023-04-20T06:08:34;9.20;;;5.10;;
21810;SDS011;11067;48.788;9.208;2023-04-20T06:10:59;6.28;;;4.72;;
21810;SDS011;11067;48.788;9.208;2023-04-20T06:13:25;7.82;;;4.93;;
21810;SDS011;11067;48.788;9.208;2023-04-20T06:15:50;7.93;;;5.30;;
21810;SDS011;11067;48.788;9.208;2023-04-20T06:18:17;9.50;;;5.53;;
21810;SDS011;11067;48.788;9.208;2023-04-20T06:20:43;6.72;;;4.68;;
21810;SDS011;11067;48.788;9.208;2023-04-20T06:23:09;9.23;;;5.30;;
21810;SDS011;11067;48.788;9.208;2023-04-20T06:25:36;8.27;;;4.28;;
21810;SDS011;11067;48.788;9.208;2023-04-20T06:28:02;7.13;;;5.03;;
21810;SDS011;11067;48.788;9.208;2023-04-20T06:30:28;9.38;;;5.22;;
21810;SDS011;11067;48.788;9.208;2023-04-20T06:32:54;8.00;;;5.10;;
21810;SDS011;11067;48.788;9.208;2023-04-20T06:35:20;8.70;;;5.47;;
21810;SDS011;11067;48.788;9.208;2023-04-20T06:37:47;9.98;;;5.25;;
21810;SDS011;11067;48.788;9.208;2023-04-20T06:40:13;9.15;;;5.30;;
21810;SDS011;11067;48.788;9.208;2023-04-20T06:42:39;8.87;;;5.53;;
21810;SDS011;11067;48.788;9.208;2023-04-20T06:45:05;10.73;;;5.75;;
21810;SDS011;11067;48.788;9.208;2023-04-20T06:47:31;8.52;;;5.97;;
21810;SDS011;11067;48.788;9.208;2023-04-20T06:49:58;8.10;;;5.70;;
21810;SDS011;11067;48.788;9.208;2023-04-20T06:52:24;9.57;;;5.80;;
21810;SDS011;11067;48.788;9.208;2023-04-20T06:54:50;9.67;;;5.50;;
21810;SDS011;11067;48.788;9.208;2023-04-20T06:57:15;7.13;;;5.33;;
21810;SDS011;11067;48.788;9.208;2023-04-20T06:59:41;8.23;;;5.70;;
21810;SDS011;11067;48.788;9.208;2023-04-20T07:02:06;7.85;;;5.38;;
21810;SDS011;11067;48.788;9.208;2023-04-20T07:04:32;6.82;;;5.10;;
21810;SDS011;11067;48.788;9.208;2023-04-20T07:06:57;8.93;;;6.03;;
21810;SDS011;11067;48.788;9.208;2023-04-20T07:09:23;11.03;;;5.80;;
21810;SDS011;11067;48.788;9.208;2023-04-20T07:11:48;9.43;;;5.87;;
21810;SDS011;11067;48.788;9.208;2023-04-20T07:14:14;7.47;;;5.50;;
21810;SDS011;11067;48.788;9.208;2023-04-20T07:16:40;7.93;;;5.50;;
21810;SDS011;11067;48.788;9.208;2023-04-20T07:19:05;8.63;;;5.68;;
21810;SDS011;11067;48.788;9.208;2023-04-20T07:21:31;7.55;;;5.43;;
21810;SDS011;11067;48.788;9.208;2023-04-20T07:23:57;8.15;;;5.85;;
21810;SDS011;11067;48.788;9.208;2023-04-20T07:26:23;9.85;;;5.93;;
21810;SDS011;11067;48.788;9.208;2023-04-20T07:28:49;10.45;;;5.82;;
21810;SDS011;11067;48.788;9.208;2023-04-20T07:31:15;8.47;;;5.50;;
21810;SDS011;11067;48.788;9.208;2023-04-20T07:33:41;9.33;;;5.73;;
21810;SDS011;11067;48.788;9.208;2023-04-20T07:36:07;11.02;;;5.93;;
21810;SDS011;11067;48.788;9.208;2023-04-20T07:38:33;9.35;;;5.35;;
21810;SDS011;11067;48.788;9.208;2023-04-20T07:40:58;8.13;;;5.82;;
21810;SDS011;11067;48.788;9.208;2023-04-20T07:43:24;9.87;;;6.57;;
21810;SDS011;11067;48.788;9.208;2023-04-20T07:45:50;10.63;;;6.30;;
21810;SDS011;11067;48.788;9.208;2023-04-20T07:48:15;8.43;;;5.37;;
21810;SDS011;11067;48.788;9.208;2023-04-20T07:50:41;11.95;;;5.75;;
21810;SDS011;11067;48.788;9.208;2023-04-20T07:53:06;8.77;;;5.78;;
21810;SDS011;11067;48.788;9.208;2023-04-20T07:55:32;12.10;;;6.40;;
21810;SDS011;11067;48.788;9.208;2023-04-20T07:57:57;10.87;;;6.10;;
21810;SDS011;11067;48.788;9.208;2023-04-20T08:00:24;10.70;;;5.77;;
21810;SDS011;11067;48.788;9.208;2023-04-20T08:02:50;10.52;;;5.82;;
21810;SDS011;11067;48.788;9.208;2023-04-20T08:05:16;8.35;;;5.90;;
21810;SDS011;11067;48.788;9.208;2023-04-20T08:07:42;9.80;;;5.97;;
21810;SDS011;11067;48.788;9.208;2023-04-20T08:10:08;12.07;;;6.00;;
21810;SDS011;11067;48.788;9.208;2023-04-20T08:12:34;7.23;;;5.40;;
21810;SDS011;11067;48.788;9.208;2023-04-20T08:15:00;9.15;;;5.78;;
21810;SDS011;11067;48.788;9.208;2023-04-20T08:17:28;8.87;;;6.10;;
21810;SDS011;11067;48.788;9.208;2023-04-20T08:19:54;8.80;;;5.93;;
21810;SDS011;11067;48.788;9.208;2023-04-20T08:22:20;13.47;;;5.93;;
21810;SDS011;11067;48.788;9.208;2023-04-20T08:24:45;7.50;;;5.50;;
21810;SDS011;11067;48.788;9.208;2023-04-20T08:27:11;7.05;;;5.55;;
21810;SDS011;11067;48.788;9.208;2023-04-20T08:29:37;8.67;;;5.67;;
21810;SDS011;11067;48.788;9.208;2023-04-20T08:32:03;7.55;;;5.32;;
21810;SDS011;11067;48.788;9.208;2023-04-20T08:34:32;8.87;;;5.63;;
21810;SDS011;11067;48.788;9.208;2023-04-20T08:36:58;10.32;;;5.63;;
21810;SDS011;11067;48.788;9.208;2023-04-20T08:39:24;8.18;;;5.80;;
21810;SDS011;11067;48.788;9.208;2023-04-20T08:41:50;9.18;;;6.10;;
21810;SDS011;11067;48.788;9.208;2023-04-20T08:44:19;10.63;;;6.03;;
21810;SDS011;11067;48.788;9.208;2023-04-20T08:46:46;10.48;;;6.38;;
21810;SDS011;11067;48.788;9.208;2023-04-20T08:49:13;8.55;;;6.28;;
21810;SDS011;11067;48.788;9.208;2023-04-20T08:51:39;11.53;;;7.00;;
21810;SDS011;11067;48.788;9.208;2023-04-20T08:54:06;10.97;;;6.20;;
21810;SDS011;11067;48.788;9.208;2023-04-20T08:56:35;10.77;;;5.80;;
21810;SDS011;11067;48.788;9.208;2023-04-20T08:59:01;9.00;;;5.97;;
21810;SDS011;11067;48.788;9.208;2023-04-20T09:01:29;9.65;;;6.05;;
21810;SDS011;11067;48.788;9.208;2023-04-20T09:03:55;10.57;;;6.13;;
21810;SDS011;11067;48.788;9.208;2023-04-20T09:06:20;8.27;;;6.07;;
21810;SDS011;11067;48.788;9.208;2023-04-20T09:08:47;11.25;;;6.20;;
21810;SDS011;11067;48.788;9.208;2023-04-20T09:11:20;11.65;;;5.80;;
21810;SDS011;11067;48.788;9.208;2023-04-20T09:14:01;8.10;;;5.90;;
21810;SDS011;11067;48.788;9.208;2023-04-20T09:16:28;9.55;;;6.10;;
21810;SDS011;11067;48.788;9.208;2023-04-20T09:18:55;7.47;;;5.70;;
21810;SDS011;11067;48.788;9.208;2023-04-20T09:21:22;8.32;;;6.15;;
21810;SDS011;11067;48.788;9.208;2023-04-20T09:24:22;8.27;;;6.50;;
21810;SDS011;11067;48.788;9.208;2023-04-20T09:26:40;9.93;;;6.30;;
21810;SDS011;11067;48.788;9.208;2023-04-20T09:29:15;10.87;;;6.07;;
21810;SDS011;11067;48.788;9.208;2023-04-20T09:31:43;9.93;;;6.22;;
21810;SDS011;11067;48.788;9.208;2023-04-20T09:34:08;10.60;;;6.30;;
21810;SDS011;11067;48.788;9.208;2023-04-20T09:36:40;8.43;;;6.22;;
21810;SDS011;11067;48.788;9.208;2023-04-20T09:39:08;8.25;;;5.55;;
21810;SDS011;11067;48.788;9.208;2023-04-20T09:41:54;7.78;;;6.10;;
21810;SDS011;11067;48.788;9.208;2023-04-20T09:44:28;8.52;;;5.60;;
21810;SDS011;11067;48.788;9.208;2023-04-20T09:46:53;10.50;;;5.80;;
21810;SDS011;11067;48.788;9.208;2023-04-20T09:49:19;8.13;;;5.73;;
21810;SDS011;11067;48.788;9.208;2023-04-20T09:51:45;12.10;;;6.80;;
21810;SDS011;11067;48.788;9.208;2023-04-20T09:54:11;9.25;;;5.65;;
21810;SDS011;11067;48.788;9.208;2023-04-20T09:56:37;12.07;;;6.57;;
21810;SDS011;11067;48.788;9.208;2023-04-20T09:59:04;11.77;;;6.80;;
21810;SDS011;11067;48.788;9.208;2023-04-20T10:01:32;14.10;;;6.67;;
21810;SDS011;11067;48.788;9.208;2023-04-20T10:04:07;11.95;;;6.28;;
21810;SDS011;11067;48.788;9.208;2023-04-20T10:06:34;13.85;;;8.52;;
21810;SDS011;11067;48.788;9.208;2023-04-20T10:09:02;8.82;;;6.28;;
21810;SDS011;11067;48.788;9.208;2023-04-20T10:11:32;11.07;;;6.05;;
21810;SDS011;11067;48.788;9.208;2023-04-20T10:14:18;10.15;;;6.35;;
21810;SDS011;11067;48.788;9.208;2023-04-20T10:16:45;9.97;;;6.10;;
21810;SDS011;11067;48.788;9.208;2023-04-20T10:19:22;10.07;;;6.40;;
21810;SDS011;11067;48.788;9.208;2023-04-20T10:21:48;9.02;;;6.10;;
21810;SDS011;11067;48.788;9.208;2023-04-20T10:24:15;9.18;;;6.05;;
21810;SDS011;11067;48.788;9.208;2023-04-20T10:26:52;8.65;;;5.88;;
21810;SDS011;11067;48.788;9.208;2023-04-20T10:29:27;9.53;;;6.27;;
21810;SDS011;11067;48.788;9.208;2023-04-20T10:31:53;9.45;;;6.72;;
21810;SDS011;11067;48.788;9.208;2023-04-20T10:34:29;8.63;;;6.25;;
21810;SDS011;11067;48.788;9.208;2023-04-20T10:37:08;8.93;;;6.32;;
21810;SDS011;11067;48.788;9.208;2023-04-20T10:39:36;10.00;;;6.20;;
21810;SDS011;11067;48.788;9.208;2023-04-20T10:42:08;8.40;;;6.18;;
21810;SDS011;11067;48.788;9.208;2023-04-20T10:44:34;9.15;;;6.00;;
21810;SDS011;11067;48.788;9.208;2023-04-20T10:47:00;10.88;;;6.60;;
21810;SDS011;11067;48.788;9.208;2023-04-20T10:49:26;9.18;;;6.20;;
21810;SDS011;11067;48.788;9.208;2023-04-20T10:51:56;9.00;;;5.93;;
21810;SDS011;11067;48.788;9.208;2023-04-20T10:54:21;7.50;;;4.83;;
21810;SDS011;11067;48.788;9.208;2023-04-20T10:56:48;6.20;;;4.43;;
21810;SDS011;11067;48.788;9.208;2023-04-20T10:59:19;7.40;;;5.15;;
21810;SDS011;11067;48.788;9.208;2023-04-20T11:01:46;7.37;;;5.37;;
21810;SDS011;11067;48.788;9.208;2023-04-20T11:04:15;7.32;;;5.03;;
21810;SDS011;11067;48.788;9.208;2023-04-20T11:06:42;6.90;;;4.83;;
21810;SDS011;11067;48.788;9.208;2023-04-20T11:09:15;8.23;;;5.45;;
21810;SDS011;11067;48.788;9.208;2023-04-20T11:11:43;9.80;;;5.63;;
21810;SDS011;11067;48.788;9.208;2023-04-20T11:14:09;8.87;;;5.63;;
21810;SDS011;11067;48.788;9.208;2023-04-20T11:16:35;8.98;;;5.38;;
21810;SDS011;11067;48.788;9.208;2023-04-20T11:19:02;7.82;;;5.40;;
21810;SDS011;11067;48.788;9.208;2023-04-20T11:21:38;9.10;;;6.00;;
21810;SDS011;11067;48.788;9.208;2023-04-20T11:24:15;8.80;;;6.30;;
21810;SDS011;11067;48.788;9.208;2023-04-20T11:26:43;8.07;;;5.73;;
21810;SDS011;11067;48.788;9.208;2023-04-20T11:29:08;9.87;;;6.33;;
21810;SDS011;11067;48.788;9.208;2023-04-20T11:31:34;11.00;;;6.87;;
21810;SDS011;11067;48.788;9.208;2023-04-20T11:34:00;9.55;;;6.40;;
21810;SDS011;11067;48.788;9.208;2023-04-20T11:36:27;7.75;;;5.78;;
21810;SDS011;11067;48.788;9.208;2023-04-20T11:38:53;9.65;;;6.32;;
21810;SDS011;11067;48.788;9.208;2023-04-20T11:41:20;10.20;;;7.25;;
21810;SDS011;11067;48.788;9.208;2023-04-20T11:43:46;9.48;;;6.78;;
21810;SDS011;11067;48.788;9.208;2023-04-20T11:46:16;9.85;;;6.75;;
21810;SDS011;11067;48.788;9.208;2023-04-20T11:48:45;9.55;;;6.40;;
21810;SDS011;11067;48.788;9.208;2023-04-20T11:51:12;11.38;;;6.90;;
21810;SDS011;11067;48.788;9.208;2023-04-20T11:53:38;11.77;;;6.80;;
21810;SDS011;11067;48.788;9.208;2023-04-20T11:56:04;10.82;;;6.80;;
21810;SDS011;11067;48.788;9.208;2023-04-20T11:58:30;8.80;;;5.90;;
21810;SDS011;11067;48.788;9.208;2023-04-20T12:00:56;10.90;;;6.63;;
21810;SDS011;11067;48.788;9.208;2023-04-20T12:03:21;9.25;;;6.57;;
21810;SDS011;11067;48.788;9.208;2023-04-20T12:05:47;10.60;;;6.63;;
21810;SDS011;11067;48.788;9.208;2023-04-20T12:08:12;10.87;;;6.83;;
21810;SDS011;11067;48.788;9.208;2023-04-20T12:10:38;9.73;;;7.30;;
21810;SDS011;11067;48.788;9.208;2023-04-20T12:13:04;10.57;;;7.07;;
21810;SDS011;11067;48.788;9.208;2023-04-20T12:15:30;11.60;;;6.78;;
21810;SDS011;11067;48.788;9.208;2023-04-20T12:17:55;10.80;;;7.07;;
21810;SDS011;11067;48.788;9.208;2023-04-20T12:20:21;9.47;;;6.80;;
21810;SDS011;11067;48.788;9.208;2023-04-20T12:22:47;9.43;;;5.97;;
21810;SDS011;11067;48.788;9.208;2023-04-20T12:25:12;8.10;;;6.10;;
21810;SDS011;11067;48.788;9.208;2023-04-20T12:27:38;9.52;;;5.90;;
21810;SDS011;11067;48.788;9.208;2023-04-20T12:30:04;7.67;;;5.70;;
21810;SDS011;11067;48.788;9.208;2023-04-20T12:32:30;9.00;;;6.03;;
21810;SDS011;11067;48.788;9.208;2023-04-20T12:34:56;7.57;;;5.70;;
21810;SDS011;11067;48.788;9.208;2023-04-20T12:37:21;8.97;;;5.73;;
21810;SDS011;11067;48.788;9.208;2023-04-20T12:39:47;11.63;;;6.30;;
21810;SDS011;11067;48.788;9.208;2023-04-20T12:42:12;7.60;;;5.30;;
21810;SDS011;11067;48.788;9.208;2023-04-20T12:44:38;6.97;;;5.50;;
21810;SDS011;11067;48.788;9.208;2023-04-20T12:47:03;10.93;;;6.17;;
21810;SDS011;11067;48.788;9.208;2023-04-20T12:49:29;9.10;;;5.40;;
21810;SDS011;11067;48.788;9.208;2023-04-20T12:51:54;6.72;;;5.25;;
21810;SDS011;11067;48.788;9.208;2023-04-20T12:54:20;7.90;;;5.25;;
21810;SDS011;11067;48.788;9.208;2023-04-20T12:56:45;6.73;;;5.33;;
21810;SDS011;11067;48.788;9.208;2023-04-20T12:59:11;10.30;;;6.27;;
21810;SDS011;11067;48.788;9.208;2023-04-20T13:01:37;7.73;;;5.30;;
21810;SDS011;11067;48.788;9.208;2023-04-20T13:04:02;7.60;;;5.50;;
21810;SDS011;11067;48.788;9.208;2023-04-20T13:06:28;13.50;;;6.27;;
21810;SDS011;11067;48.788;9.208;2023-04-20T13:08:53;7.67;;;5.23;;
21810;SDS011;11067;48.788;9.208;2023-04-20T13:11:19;8.33;;;5.70;;
21810;SDS011;11067;48.788;9.208;2023-04-20T13:13:44;7.82;;;5.53;;
21810;SDS011;11067;48.788;9.208;2023-04-20T13:16:10;7.55;;;5.43;;
21810;SDS011;11067;48.788;9.208;2023-04-20T13:18:36;8.00;;;5.55;;
21810;SDS011;11067;48.788;9.208;2023-04-20T13:21:02;7.18;;;5.07;;
21810;SDS011;11067;48.788;9.208;2023-04-20T13:23:27;7.47;;;4.80;;
21810;SDS011;11067;48.788;9.208;2023-04-20T13:25:53;6.82;;;5.07;;
21810;SDS011;11067;48.788;9.208;2023-04-20T13:28:20;8.40;;;5.63;;
21810;SDS011;11067;48.788;9.208;2023-04-20T13:30:46;8.53;;;5.33;;
21810;SDS011;11067;48.788;9.208;2023-04-20T13:33:12;8.63;;;5.07;;
21810;SDS011;11067;48.788;9.208;2023-04-20T13:35:38;8.60;;;5.60;;
21810;SDS011;11067;48.788;9.208;2023-04-20T13:38:04;9.68;;;5.43;;
21810;SDS011;11067;48.788;9.208;2023-04-20T13:40:30;8.25;;;5.38;;
21810;SDS011;11067;48.788;9.208;2023-04-20T13:42:55;7.57;;;5.20;;
21810;SDS011;11067;48.788;9.208;2023-04-20T13:45:21;8.18;;;5.32;;
21810;SDS011;11067;48.788;9.208;2023-04-20T13:47:47;8.18;;;5.60;;
21810;SDS011;11067;48.788;9.208;2023-04-20T13:50:13;10.05;;;5.72;;
21810;SDS011;11067;48.788;9.208;2023-04-20T13:52:39;9.87;;;5.83;;
21810;SDS011;11067;48.788;9.208;2023-04-20T13:55:04;10.17;;;5.53;;
21810;SDS011;11067;48.788;9.208;2023-04-20T13:57:30;8.97;;;5.60;;
21810;SDS011;11067;48.788;9.208;2023-04-20T13:59:56;8.50;;;6.27;;
21810;SDS011;11067;48.788;9.208;2023-04-20T14:02:22;8.63;;;5.47;;
21810;SDS011;11067;48.788;9.208;2023-04-20T14:04:48;8.73;;;5.40;;
21810;SDS011;11067;48.788;9.208;2023-04-20T14:07:14;9.90;;;5.67;;
21810;SDS011;11067;48.788;9.208;2023-04-20T14:09:40;8.97;;;5.50;;
21810;SDS011;11067;48.788;9.208;2023-04-20T14:12:08;8.23;;;5.67;;
21810;SDS011;11067;48.788;9.208;2023-04-20T14:14:34;7.07;;;5.40;;
21810;SDS011;11067;48.788;9.208;2023-04-20T14:16:59;8.65;;;5.43;;
21810;SDS011;11067;48.788;9.208;2023-04-20T14:19:25;9.48;;;5.88;;
21810;SDS011;11067;48.788;9.208;2023-04-20T14:21:51;7.57;;;5.45;;
21810;SDS011;11067;48.788;9.208;2023-04-20T14:24:17;7.28;;;5.63;;
21810;SDS011;11067;48.788;9.208;2023-04-20T14:26:42;8.13;;;5.63;;
21810;SDS011;11067;48.788;9.208;2023-04-20T14:29:08;7.30;;;5.43;;
21810;SDS011;11067;48.788;9.208;2023-04-20T14:31:34;9.00;;;5.60;;
21810;SDS011;11067;48.788;9.208;2023-04-20T14:33:59;7.37;;;5.27;;
21810;SDS011;11067;48.788;9.208;2023-04-20T14:36:26;7.20;;;5.70;;
21810;SDS011;11067;48.788;9.208;2023-04-20T14:38:51;9.35;;;6.00;;
21810;SDS011;11067;48.788;9.208;2023-04-20T14:41:18;9.37;;;5.77;;